sensor_id;sensor_type;location;lat;lon;timestamp;pressure;altitude;pressure_sealevel;temperature;humidity
22241;BME280;11289;52.524;13.694;2022-07-23T00:00:28;101107.53;;;19.03;64.40
22241;BME280;11289;52.524;13.694;2022-07-23T00:02:54;101117.22;;;19.06;64.55
22241;BME280;11289;52.524;13.694;2022-07-23T00:05:19;101087.91;;;18.84;64.59
22241;BME280;11289;52.524;13.694;2022-07-23T00:07:45;101108.66;;;18.99;64.59
22241;BME280;11289;52.524;13.694;2022-07-23T00:10:10;101095.66;;;18.90;64.85
22241;BME280;11289;52.524;13.694;2022-07-23T00:12:37;101090.22;;;18.78;64.89
22241;BME280;11289;52.524;13.694;2022-07-23T00:15:04;101100.47;;;18.90;64.71
22241;BME280;11289;52.524;13.694;2022-07-23T00:17:29;101095.22;;;18.88;64.91
22241;BME280;11289;52.524;13.694;2022-07-23T00:19:55;101066.00;;;18.73;65.06
22241;BME280;11289;52.524;13.694;2022-07-23T00:22:20;101085.88;;;18.84;65.15
22241;BME280;11289;52.524;13.694;2022-07-23T00:24:46;101060.75;;;18.72;64.99
22241;BME280;11289;52.524;13.694;2022-07-23T00:27:11;101081.00;;;18.81;64.79
22241;BME280;11289;52.524;13.694;2022-07-23T00:29:37;101067.25;;;18.76;65.11
22241;BME280;11289;52.524;13.694;2022-07-23T00:32:02;101074.81;;;18.72;65.38
22241;BME280;11289;52.524;13.694;2022-07-23T00:34:28;101082.06;;;18.73;65.40
22241;BME280;11289;52.524;13.694;2022-07-23T00:36:53;101068.25;;;18.64;66.10
22241;BME280;11289;52.524;13.694;2022-07-23T00:39:19;101090.47;;;18.69;65.63
22241;BME280;11289;52.524;13.694;2022-07-23T00:41:46;101086.81;;;18.69;65.74
22241;BME280;11289;52.524;13.694;2022-07-23T00:44:20;101075.44;;;18.61;65.34
22241;BME280;11289;52.524;13.694;2022-07-23T00:46:51;101083.06;;;18.61;65.40
22241;BME280;11289;52.524;13.694;2022-07-23T00:49:22;101064.44;;;18.53;65.45
22241;BME280;11289;52.524;13.694;2022-07-23T00:51:49;101087.41;;;18.55;66.11
22241;BME280;11289;52.524;13.694;2022-07-23T00:54:16;101084.88;;;18.50;65.99
22241;BME280;11289;52.524;13.694;2022-07-23T00:56:43;101061.13;;;18.47;66.03
22241;BME280;11289;52.524;13.694;2022-07-23T00:59:09;101061.22;;;18.51;65.99
22241;BME280;11289;52.524;13.694;2022-07-23T01:01:34;101066.38;;;18.49;66.45
22241;BME280;11289;52.524;13.694;2022-07-23T01:04:00;101071.94;;;18.45;66.24
22241;BME280;11289;52.524;13.694;2022-07-23T01:06:25;101089.75;;;18.53;66.13
22241;BME280;11289;52.524;13.694;2022-07-23T01:08:51;101086.56;;;18.54;66.10
22241;BME280;11289;52.524;13.694;2022-07-23T01:11:25;101037.22;;;18.34;66.22
22241;BME280;11289;52.524;13.694;2022-07-23T01:13:52;101030.78;;;18.33;66.56
22241;BME280;11289;52.524;13.694;2022-07-23T01:16:17;101068.63;;;18.39;66.80
22241;BME280;11289;52.524;13.694;2022-07-23T01:18:42;101059.56;;;18.26;66.34
22241;BME280;11289;52.524;13.694;2022-07-23T01:21:11;101084.00;;;18.45;66.46
22241;BME280;11289;52.524;13.694;2022-07-23T01:23:38;101082.44;;;18.48;66.68
22241;BME280;11289;52.524;13.694;2022-07-23T01:26:03;101066.50;;;18.33;66.89
22241;BME280;11289;52.524;13.694;2022-07-23T01:28:29;101084.06;;;18.49;66.45
22241;BME280;11289;52.524;13.694;2022-07-23T01:30:54;101088.94;;;18.52;66.62
22241;BME280;11289;52.524;13.694;2022-07-23T01:33:20;101062.25;;;18.42;66.66
22241;BME280;11289;52.524;13.694;2022-07-23T01:35:55;101060.72;;;18.45;66.64
22241;BME280;11289;52.524;13.694;2022-07-23T01:38:59;101063.91;;;18.43;66.33
22241;BME280;11289;52.524;13.694;2022-07-23T01:41:45;101030.84;;;18.37;66.61
22241;BME280;11289;52.524;13.694;2022-07-23T01:44:12;101034.09;;;18.39;66.75
22241;BME280;11289;52.524;13.694;2022-07-23T01:46:38;101051.03;;;18.42;66.53
22241;BME280;11289;52.524;13.694;2022-07-23T01:49:03;101033.59;;;18.33;66.57
22241;BME280;11289;52.524;13.694;2022-07-23T01:51:29;101026.34;;;18.32;66.66
22241;BME280;11289;52.524;13.694;2022-07-23T01:53:54;101046.94;;;18.40;66.33
22241;BME280;11289;52.524;13.694;2022-07-23T01:56:20;101037.16;;;18.30;66.45
22241;BME280;11289;52.524;13.694;2022-07-23T01:58:46;101035.59;;;18.33;66.44
22241;BME280;11289;52.524;13.694;2022-07-23T02:01:12;101049.63;;;18.33;66.63
22241;BME280;11289;52.524;13.694;2022-07-23T02:03:37;101049.22;;;18.31;66.53
22241;BME280;11289;52.524;13.694;2022-07-23T02:06:02;101038.28;;;18.25;66.58
22241;BME280;11289;52.524;13.694;2022-07-23T02:08:28;101029.28;;;18.16;66.52
22241;BME280;11289;52.524;13.694;2022-07-23T02:10:53;101030.09;;;18.17;66.68
22241;BME280;11289;52.524;13.694;2022-07-23T02:13:19;101015.41;;;18.04;66.87
22241;BME280;11289;52.524;13.694;2022-07-23T02:15:46;101033.25;;;18.15;67.01
22241;BME280;11289;52.524;13.694;2022-07-23T02:18:12;101040.09;;;18.14;66.93
22241;BME280;11289;52.524;13.694;2022-07-23T02:20:37;101040.47;;;18.13;67.15
22241;BME280;11289;52.524;13.694;2022-07-23T02:23:04;101005.97;;;17.92;67.19
22241;BME280;11289;52.524;13.694;2022-07-23T02:25:30;101033.44;;;18.03;66.81
22241;BME280;11289;52.524;13.694;2022-07-23T02:27:56;101023.19;;;17.91;67.15
22241;BME280;11289;52.524;13.694;2022-07-23T02:30:21;101046.69;;;18.02;67.75
22241;BME280;11289;52.524;13.694;2022-07-23T02:32:47;101044.53;;;17.96;67.69
22241;BME280;11289;52.524;13.694;2022-07-23T02:35:12;101046.16;;;17.97;67.67
22241;BME280;11289;52.524;13.694;2022-07-23T02:37:37;101036.47;;;17.94;67.69
22241;BME280;11289;52.524;13.694;2022-07-23T02:40:03;101005.19;;;17.76;67.70
22241;BME280;11289;52.524;13.694;2022-07-23T02:42:29;101028.09;;;17.98;67.60
22241;BME280;11289;52.524;13.694;2022-07-23T02:44:54;101019.63;;;17.94;67.42
22241;BME280;11289;52.524;13.694;2022-07-23T02:47:19;101033.31;;;17.96;67.50
22241;BME280;11289;52.524;13.694;2022-07-23T02:49:45;101019.84;;;17.85;67.45
22241;BME280;11289;52.524;13.694;2022-07-23T02:52:10;101042.63;;;18.00;67.25
22241;BME280;11289;52.524;13.694;2022-07-23T02:54:36;101034.84;;;17.93;67.37
22241;BME280;11289;52.524;13.694;2022-07-23T02:57:03;101033.31;;;17.96;67.15
22241;BME280;11289;52.524;13.694;2022-07-23T02:59:28;101033.66;;;17.94;67.07
22241;BME280;11289;52.524;13.694;2022-07-23T03:01:54;101038.91;;;17.96;67.27
22241;BME280;11289;52.524;13.694;2022-07-23T03:04:19;101038.13;;;17.95;67.19
22241;BME280;11289;52.524;13.694;2022-07-23T03:06:44;101048.16;;;17.96;67.03
22241;BME280;11289;52.524;13.694;2022-07-23T03:09:10;101050.97;;;17.96;66.86
22241;BME280;11289;52.524;13.694;2022-07-23T03:11:35;101048.59;;;17.98;67.23
22241;BME280;11289;52.524;13.694;2022-07-23T03:14:00;101044.53;;;17.96;67.11
22241;BME280;11289;52.524;13.694;2022-07-23T03:16:26;101003.13;;;17.73;67.08
22241;BME280;11289;52.524;13.694;2022-07-23T03:18:51;101001.22;;;17.77;66.82
22241;BME280;11289;52.524;13.694;2022-07-23T03:21:17;101009.78;;;17.84;67.13
22241;BME280;11289;52.524;13.694;2022-07-23T03:23:42;101023.00;;;17.84;66.85
22241;BME280;11289;52.524;13.694;2022-07-23T03:26:08;101029.97;;;17.90;66.72
22241;BME280;11289;52.524;13.694;2022-07-23T03:28:33;101007.81;;;17.85;66.57
22241;BME280;11289;52.524;13.694;2022-07-23T03:30:58;101019.03;;;17.85;66.47
22241;BME280;11289;52.524;13.694;2022-07-23T03:33:24;101028.44;;;17.92;66.80
22241;BME280;11289;52.524;13.694;2022-07-23T03:35:49;101033.44;;;18.03;66.81
22241;BME280;11289;52.524;13.694;2022-07-23T03:38:15;101006.91;;;17.81;66.89
22241;BME280;11289;52.524;13.694;2022-07-23T03:40:40;101027.50;;;17.88;67.12
22241;BME280;11289;52.524;13.694;2022-07-23T03:43:06;101027.25;;;17.94;67.06
22241;BME280;11289;52.524;13.694;2022-07-23T03:45:32;101043.66;;;17.91;67.19
22241;BME280;11289;52.524;13.694;2022-07-23T03:47:57;101049.72;;;17.94;67.38
22241;BME280;11289;52.524;13.694;2022-07-23T03:50:23;101045.66;;;17.91;67.29
22241;BME280;11289;52.524;13.694;2022-07-23T03:52:49;101039.78;;;17.80;67.52
22241;BME280;11289;52.524;13.694;2022-07-23T03:55:14;101018.22;;;17.65;67.58
22241;BME280;11289;52.524;13.694;2022-07-23T03:57:40;101009.19;;;17.55;67.63
22241;BME280;11289;52.524;13.694;2022-07-23T04:00:06;101049.47;;;17.83;67.60
22241;BME280;11289;52.524;13.694;2022-07-23T04:02:34;101046.22;;;17.81;67.57
22241;BME280;11289;52.524;13.694;2022-07-23T04:05:00;101049.47;;;17.83;67.36
22241;BME280;11289;52.524;13.694;2022-07-23T04:07:26;101053.75;;;17.77;67.41
22241;BME280;11289;52.524;13.694;2022-07-23T04:09:51;101071.25;;;17.70;67.60
22241;BME280;11289;52.524;13.694;2022-07-23T04:12:16;101065.72;;;17.73;67.72
22241;BME280;11289;52.524;13.694;2022-07-23T04:14:42;101055.25;;;17.70;67.87
22241;BME280;11289;52.524;13.694;2022-07-23T04:17:08;101064.03;;;17.69;67.95
22241;BME280;11289;52.524;13.694;2022-07-23T04:19:34;101064.84;;;17.69;67.88
22241;BME280;11289;52.524;13.694;2022-07-23T04:22:05;101049.16;;;17.68;67.81
22241;BME280;11289;52.524;13.694;2022-07-23T04:24:30;101026.56;;;17.61;67.79
22241;BME280;11289;52.524;13.694;2022-07-23T04:26:56;101058.06;;;17.70;67.68
22241;BME280;11289;52.524;13.694;2022-07-23T04:29:21;101075.53;;;17.64;68.02
22241;BME280;11289;52.524;13.694;2022-07-23T04:31:47;101080.94;;;17.72;67.82
22241;BME280;11289;52.524;13.694;2022-07-23T04:34:12;101055.00;;;17.60;67.68
22241;BME280;11289;52.524;13.694;2022-07-23T04:36:37;101044.72;;;17.67;67.41
22241;BME280;11289;52.524;13.694;2022-07-23T04:39:03;101076.44;;;17.87;67.26
22241;BME280;11289;52.524;13.694;2022-07-23T04:41:28;101057.16;;;17.86;66.89
22241;BME280;11289;52.524;13.694;2022-07-23T04:43:53;101040.84;;;17.72;66.66
22241;BME280;11289;52.524;13.694;2022-07-23T04:46:19;101058.78;;;17.87;66.61
22241;BME280;11289;52.524;13.694;2022-07-23T04:48:44;101058.34;;;17.85;66.66
22241;BME280;11289;52.524;13.694;2022-07-23T04:51:10;101073.19;;;17.85;66.36
22241;BME280;11289;52.524;13.694;2022-07-23T04:53:37;101111.06;;;17.91;66.42
22241;BME280;11289;52.524;13.694;2022-07-23T04:56:03;101107.88;;;17.93;66.29
22241;BME280;11289;52.524;13.694;2022-07-23T04:58:28;101084.47;;;17.89;66.13
22241;BME280;11289;52.524;13.694;2022-07-23T05:00:54;101125.22;;;17.79;66.14
22241;BME280;11289;52.524;13.694;2022-07-23T05:03:19;101117.38;;;17.88;68.50
22241;BME280;11289;52.524;13.694;2022-07-23T05:05:45;101104.00;;;17.82;71.48
22241;BME280;11289;52.524;13.694;2022-07-23T05:08:10;101102.59;;;17.72;73.99
22241;BME280;11289;52.524;13.694;2022-07-23T05:10:35;101121.59;;;17.79;75.12
22241;BME280;11289;52.524;13.694;2022-07-23T05:13:01;101135.19;;;17.77;74.21
22241;BME280;11289;52.524;13.694;2022-07-23T05:15:26;101107.75;;;17.50;72.37
22241;BME280;11289;52.524;13.694;2022-07-23T05:17:52;101072.59;;;17.21;74.49
22241;BME280;11289;52.524;13.694;2022-07-23T05:20:17;101063.38;;;17.04;75.12
22241;BME280;11289;52.524;13.694;2022-07-23T05:22:43;101069.72;;;17.01;77.60
22241;BME280;11289;52.524;13.694;2022-07-23T05:25:08;101057.56;;;17.13;78.54
22241;BME280;11289;52.524;13.694;2022-07-23T05:27:36;101061.78;;;17.03;76.02
22241;BME280;11289;52.524;13.694;2022-07-23T05:30:02;101087.72;;;17.16;78.62
22241;BME280;11289;52.524;13.694;2022-07-23T05:32:31;101082.81;;;17.13;76.43
22241;BME280;11289;52.524;13.694;2022-07-23T05:34:57;101043.78;;;16.88;79.18
22241;BME280;11289;52.524;13.694;2022-07-23T05:37:22;101069.16;;;17.12;79.25
22241;BME280;11289;52.524;13.694;2022-07-23T05:39:48;101091.41;;;17.20;77.39
22241;BME280;11289;52.524;13.694;2022-07-23T05:42:14;101103.84;;;17.19;77.25
22241;BME280;11289;52.524;13.694;2022-07-23T05:44:39;101098.94;;;17.16;77.81
22241;BME280;11289;52.524;13.694;2022-07-23T05:47:05;101093.78;;;17.18;77.42
22241;BME280;11289;52.524;13.694;2022-07-23T05:49:31;101083.47;;;17.22;78.98
22241;BME280;11289;52.524;13.694;2022-07-23T05:51:57;101088.97;;;17.19;78.20
22241;BME280;11289;52.524;13.694;2022-07-23T05:54:23;101086.25;;;17.22;76.67
22241;BME280;11289;52.524;13.694;2022-07-23T05:56:48;101092.50;;;17.16;77.22
22241;BME280;11289;52.524;13.694;2022-07-23T05:59:15;101084.38;;;17.11;76.69
22241;BME280;11289;52.524;13.694;2022-07-23T06:01:40;101096.69;;;16.90;74.97
22241;BME280;11289;52.524;13.694;2022-07-23T06:04:06;101118.94;;;16.99;77.27
22241;BME280;11289;52.524;13.694;2022-07-23T06:06:31;101111.53;;;17.07;78.31
22241;BME280;11289;52.524;13.694;2022-07-23T06:08:57;101100.75;;;17.09;78.89
22241;BME280;11289;52.524;13.694;2022-07-23T06:11:22;101101.28;;;17.14;76.73
22241;BME280;11289;52.524;13.694;2022-07-23T06:13:48;101086.91;;;17.16;78.07
22241;BME280;11289;52.524;13.694;2022-07-23T06:16:13;101101.47;;;17.21;76.96
22241;BME280;11289;52.524;13.694;2022-07-23T06:18:38;101113.13;;;17.23;78.27
22241;BME280;11289;52.524;13.694;2022-07-23T06:21:04;101097.56;;;17.26;77.80
22241;BME280;11289;52.524;13.694;2022-07-23T06:23:32;101107.97;;;17.26;77.54
22241;BME280;11289;52.524;13.694;2022-07-23T06:25:57;101083.56;;;17.10;77.18
22241;BME280;11289;52.524;13.694;2022-07-23T06:28:23;101072.88;;;16.84;74.28
22241;BME280;11289;52.524;13.694;2022-07-23T06:30:48;101074.97;;;16.71;77.88
22241;BME280;11289;52.524;13.694;2022-07-23T06:33:14;101102.31;;;16.90;78.64
22241;BME280;11289;52.524;13.694;2022-07-23T06:35:39;101072.34;;;16.78;78.48
22241;BME280;11289;52.524;13.694;2022-07-23T06:38:04;101087.56;;;16.93;79.52
22241;BME280;11289;52.524;13.694;2022-07-23T06:40:30;101074.44;;;16.97;78.87
22241;BME280;11289;52.524;13.694;2022-07-23T06:42:55;101068.53;;;16.86;78.44
22241;BME280;11289;52.524;13.694;2022-07-23T06:45:21;101083.38;;;16.87;74.20
22241;BME280;11289;52.524;13.694;2022-07-23T06:47:46;101076.59;;;16.56;74.63
22241;BME280;11289;52.524;13.694;2022-07-23T06:50:11;101095.13;;;16.61;74.58
22241;BME280;11289;52.524;13.694;2022-07-23T06:52:37;101057.94;;;16.32;74.65
22241;BME280;11289;52.524;13.694;2022-07-23T06:55:03;101085.59;;;16.33;75.64
22241;BME280;11289;52.524;13.694;2022-07-23T06:57:28;101068.91;;;16.37;77.81
22241;BME280;11289;52.524;13.694;2022-07-23T06:59:53;101075.06;;;16.43;79.46
22241;BME280;11289;52.524;13.694;2022-07-23T07:02:19;101082.00;;;16.49;77.13
22241;BME280;11289;52.524;13.694;2022-07-23T07:04:44;101079.63;;;16.35;78.59
22241;BME280;11289;52.524;13.694;2022-07-23T07:07:10;101074.22;;;16.42;80.19
22241;BME280;11289;52.524;13.694;2022-07-23T07:09:37;101083.28;;;16.51;80.07
22241;BME280;11289;52.524;13.694;2022-07-23T07:12:03;101095.13;;;16.61;80.08
22241;BME280;11289;52.524;13.694;2022-07-23T07:14:28;101099.03;;;16.72;80.58
22241;BME280;11289;52.524;13.694;2022-07-23T07:16:54;101091.41;;;16.73;80.21
22241;BME280;11289;52.524;13.694;2022-07-23T07:19:19;101101.72;;;16.84;80.30
22241;BME280;11289;52.524;13.694;2022-07-23T07:21:45;101089.88;;;16.75;80.57
22241;BME280;11289;52.524;13.694;2022-07-23T07:24:10;101082.09;;;16.84;79.80
22241;BME280;11289;52.524;13.694;2022-07-23T07:26:35;101097.78;;;17.01;78.77
22241;BME280;11289;52.524;13.694;2022-07-23T07:29:01;101101.66;;;17.13;79.74
22241;BME280;11289;52.524;13.694;2022-07-23T07:31:33;101081.22;;;17.12;79.90
22241;BME280;11289;52.524;13.694;2022-07-23T07:33:59;101082.47;;;17.15;79.59
22241;BME280;11289;52.524;13.694;2022-07-23T07:36:24;101120.09;;;17.30;80.36
22241;BME280;11289;52.524;13.694;2022-07-23T07:38:50;101107.31;;;17.32;80.64
22241;BME280;11289;52.524;13.694;2022-07-23T07:41:16;101127.66;;;17.45;79.54
22241;BME280;11289;52.524;13.694;2022-07-23T07:43:41;101124.84;;;17.45;77.85
22241;BME280;11289;52.524;13.694;2022-07-23T07:46:07;101118.72;;;17.39;76.84
22241;BME280;11289;52.524;13.694;2022-07-23T07:48:39;101095.28;;;17.32;77.92
22241;BME280;11289;52.524;13.694;2022-07-23T07:51:05;101090.84;;;17.31;76.80
22241;BME280;11289;52.524;13.694;2022-07-23T07:53:30;101102.72;;;17.24;77.09
22241;BME280;11289;52.524;13.694;2022-07-23T07:55:56;101093.00;;;17.37;78.33
22241;BME280;11289;52.524;13.694;2022-07-23T07:58:21;101080.97;;;17.37;77.42
22241;BME280;11289;52.524;13.694;2022-07-23T08:00:47;101101.81;;;17.36;77.92
22241;BME280;11289;52.524;13.694;2022-07-23T08:03:12;101089.84;;;17.39;78.02
22241;BME280;11289;52.524;13.694;2022-07-23T08:05:38;101091.09;;;17.42;77.99
22241;BME280;11289;52.524;13.694;2022-07-23T08:08:03;101075.53;;;17.44;78.83
22241;BME280;11289;52.524;13.694;2022-07-23T08:10:29;101069.34;;;17.54;79.18
22241;BME280;11289;52.524;13.694;2022-07-23T08:12:57;101065.63;;;17.70;79.24
22241;BME280;11289;52.524;13.694;2022-07-23T08:15:26;101054.13;;;17.75;79.21
22241;BME280;11289;52.524;13.694;2022-07-23T08:17:52;101071.00;;;17.95;78.74
22241;BME280;11289;52.524;13.694;2022-07-23T08:20:21;101056.19;;;17.98;78.56
22241;BME280;11289;52.524;13.694;2022-07-23T08:23:02;101061.91;;;18.01;75.01
22241;BME280;11289;52.524;13.694;2022-07-23T08:25:33;101075.00;;;17.94;77.13
22241;BME280;11289;52.524;13.694;2022-07-23T08:28:00;101085.63;;;18.04;78.43
22241;BME280;11289;52.524;13.694;2022-07-23T08:30:27;101078.28;;;18.19;78.25
22241;BME280;11289;52.524;13.694;2022-07-23T08:32:58;101071.44;;;18.39;77.23
22241;BME280;11289;52.524;13.694;2022-07-23T08:35:34;101071.19;;;18.48;76.00
22241;BME280;11289;52.524;13.694;2022-07-23T08:38:01;101084.97;;;18.76;76.03
22241;BME280;11289;52.524;13.694;2022-07-23T08:40:29;101082.88;;;18.96;74.59
22241;BME280;11289;52.524;13.694;2022-07-23T08:42:55;101082.53;;;19.25;70.67
22241;BME280;11289;52.524;13.694;2022-07-23T08:45:22;101076.22;;;19.31;70.20
22241;BME280;11289;52.524;13.694;2022-07-23T08:47:55;101103.75;;;19.76;71.89
22241;BME280;11289;52.524;13.694;2022-07-23T08:50:23;101100.56;;;20.08;70.51
22241;BME280;11289;52.524;13.694;2022-07-23T08:52:50;101087.88;;;19.91;67.26
22241;BME280;11289;52.524;13.694;2022-07-23T08:55:20;101089.03;;;20.20;67.86
22241;BME280;11289;52.524;13.694;2022-07-23T08:57:51;101091.13;;;20.68;70.07
22241;BME280;11289;52.524;13.694;2022-07-23T09:00:17;101104.34;;;21.01;65.63
22241;BME280;11289;52.524;13.694;2022-07-23T09:02:44;101093.13;;;21.16;62.82
22241;BME280;11289;52.524;13.694;2022-07-23T09:05:11;101080.22;;;21.15;64.96
22241;BME280;11289;52.524;13.694;2022-07-23T09:07:38;101081.41;;;21.77;64.81
22241;BME280;11289;52.524;13.694;2022-07-23T09:10:11;101102.56;;;22.15;61.38
22241;BME280;11289;52.524;13.694;2022-07-23T09:12:37;101107.44;;;22.25;61.51
22241;BME280;11289;52.524;13.694;2022-07-23T09:15:08;101106.72;;;22.61;59.77
22241;BME280;11289;52.524;13.694;2022-07-23T09:17:41;101098.56;;;22.23;57.18
22241;BME280;11289;52.524;13.694;2022-07-23T09:20:12;101108.53;;;21.92;58.86
22241;BME280;11289;52.524;13.694;2022-07-23T09:22:40;101106.59;;;22.14;61.49
22241;BME280;11289;52.524;13.694;2022-07-23T09:25:18;101100.22;;;22.35;58.39
22241;BME280;11289;52.524;13.694;2022-07-23T09:27:55;101090.16;;;22.63;58.41
22241;BME280;11289;52.524;13.694;2022-07-23T09:30:27;101105.50;;;23.09;58.37
22241;BME280;11289;52.524;13.694;2022-07-23T09:33:12;101106.72;;;23.47;56.81
22241;BME280;11289;52.524;13.694;2022-07-23T09:35:53;101099.78;;;23.63;54.94
22241;BME280;11289;52.524;13.694;2022-07-23T09:38:20;101106.63;;;23.73;54.05
22241;BME280;11289;52.524;13.694;2022-07-23T09:40:47;101098.94;;;23.73;52.11
22241;BME280;11289;52.524;13.694;2022-07-23T09:43:30;101094.06;;;23.74;53.81
22241;BME280;11289;52.524;13.694;2022-07-23T09:46:22;101105.00;;;23.75;54.38
22241;BME280;11289;52.524;13.694;2022-07-23T09:48:50;101100.97;;;23.65;52.59
22241;BME280;11289;52.524;13.694;2022-07-23T09:51:17;101106.72;;;23.47;52.10
22241;BME280;11289;52.524;13.694;2022-07-23T09:53:52;101110.34;;;23.44;51.82
22241;BME280;11289;52.524;13.694;2022-07-23T09:56:20;101112.34;;;23.58;53.25
22241;BME280;11289;52.524;13.694;2022-07-23T09:58:45;101113.97;;;23.59;52.05
22241;BME280;11289;52.524;13.694;2022-07-23T10:01:16;101113.16;;;23.55;51.97
22241;BME280;11289;52.524;13.694;2022-07-23T10:03:42;101125.31;;;23.56;53.42
22241;BME280;11289;52.524;13.694;2022-07-23T10:06:12;101105.47;;;23.56;53.85
22241;BME280;11289;52.524;13.694;2022-07-23T10:08:40;101138.16;;;23.86;53.72
22241;BME280;11289;52.524;13.694;2022-07-23T10:11:07;101137.38;;;23.85;52.21
22241;BME280;11289;52.524;13.694;2022-07-23T10:13:33;101126.06;;;23.74;52.28
22241;BME280;11289;52.524;13.694;2022-07-23T10:15:59;101117.56;;;23.67;51.21
22241;BME280;11289;52.524;13.694;2022-07-23T10:18:25;101130.19;;;23.34;52.28
22241;BME280;11289;52.524;13.694;2022-07-23T10:20:50;101120.09;;;23.15;52.93
22241;BME280;11289;52.524;13.694;2022-07-23T10:23:38;101138.28;;;23.42;53.13
22241;BME280;11289;52.524;13.694;2022-07-23T10:26:16;101145.16;;;23.49;53.07
22241;BME280;11289;52.524;13.694;2022-07-23T10:28:55;101142.66;;;23.76;52.59
22241;BME280;11289;52.524;13.694;2022-07-23T10:34:21;101149.81;;;24.16;51.87
22241;BME280;11289;52.524;13.694;2022-07-23T10:39:34;101131.00;;;24.48;49.26
22241;BME280;11289;52.524;13.694;2022-07-23T10:42:16;101131.06;;;25.00;50.75
22241;BME280;11289;52.524;13.694;2022-07-23T10:44:44;101130.28;;;25.45;44.61
22241;BME280;11289;52.524;13.694;2022-07-23T10:47:11;101122.97;;;25.44;46.39
22241;BME280;11289;52.524;13.694;2022-07-23T10:49:37;101119.13;;;25.62;44.43
22241;BME280;11289;52.524;13.694;2022-07-23T10:52:26;101126.44;;;25.97;46.07
22241;BME280;11289;52.524;13.694;2022-07-23T10:54:55;101128.66;;;26.17;45.89
22241;BME280;11289;52.524;13.694;2022-07-23T10:57:25;101124.59;;;26.45;44.20
22241;BME280;11289;52.524;13.694;2022-07-23T11:02:39;101136.28;;;26.82;44.47
22241;BME280;11289;52.524;13.694;2022-07-23T11:05:07;101137.16;;;26.79;43.89
22241;BME280;11289;52.524;13.694;2022-07-23T11:07:34;101132.09;;;26.90;43.04
22241;BME280;11289;52.524;13.694;2022-07-23T11:09:59;101126.31;;;26.70;40.58
22241;BME280;11289;52.524;13.694;2022-07-23T11:17:39;101138.22;;;27.36;41.81
22241;BME280;11289;52.524;13.694;2022-07-23T11:20:23;101138.22;;;27.79;41.37
22241;BME280;11289;52.524;13.694;2022-07-23T11:22:51;101124.47;;;27.94;40.04
22241;BME280;11289;52.524;13.694;2022-07-23T11:27:54;101118.25;;;28.20;40.73
22241;BME280;11289;52.524;13.694;2022-07-23T11:32:50;101118.22;;;28.56;38.77
22241;BME280;11289;52.524;13.694;2022-07-23T11:35:21;101121.00;;;28.60;36.75
22241;BME280;11289;52.524;13.694;2022-07-23T11:37:48;101126.31;;;28.61;36.48
22241;BME280;11289;52.524;13.694;2022-07-23T11:40:16;101117.22;;;28.83;37.81
22241;BME280;11289;52.524;13.694;2022-07-23T11:43:08;101113.19;;;28.97;37.50
22241;BME280;11289;52.524;13.694;2022-07-23T11:45:35;101120.06;;;28.99;37.54
22241;BME280;11289;52.524;13.694;2022-07-23T11:48:03;101118.72;;;29.04;36.49
22241;BME280;11289;52.524;13.694;2022-07-23T11:50:29;101095.78;;;28.75;36.87
22241;BME280;11289;52.524;13.694;2022-07-23T11:52:54;101115.78;;;29.08;37.23
22241;BME280;11289;52.524;13.694;2022-07-23T11:55:21;101114.00;;;28.97;37.09
22241;BME280;11289;52.524;13.694;2022-07-23T11:57:47;101120.75;;;28.87;37.33
22241;BME280;11289;52.524;13.694;2022-07-23T12:00:27;101118.94;;;28.60;38.25
22241;BME280;11289;52.524;13.694;2022-07-23T12:02:56;101132.03;;;28.41;38.44
22241;BME280;11289;52.524;13.694;2022-07-23T12:05:26;101123.22;;;28.52;38.34
22241;BME280;11289;52.524;13.694;2022-07-23T12:07:53;101112.63;;;28.53;37.50
22241;BME280;11289;52.524;13.694;2022-07-23T12:10:23;101114.72;;;28.32;38.92
22241;BME280;11289;52.524;13.694;2022-07-23T12:15:20;101107.47;;;29.13;36.47
22241;BME280;11289;52.524;13.694;2022-07-23T12:17:47;101116.50;;;28.95;36.72
22241;BME280;11289;52.524;13.694;2022-07-23T12:20:14;101112.47;;;28.76;37.22
22241;BME280;11289;52.524;13.694;2022-07-23T12:22:45;101108.34;;;28.61;36.95
22241;BME280;11289;52.524;13.694;2022-07-23T12:25:14;101109.34;;;28.18;37.60
22241;BME280;11289;52.524;13.694;2022-07-23T12:27:41;101110.44;;;28.04;39.10
22241;BME280;11289;52.524;13.694;2022-07-23T12:30:27;101111.09;;;28.48;38.70
22241;BME280;11289;52.524;13.694;2022-07-23T12:32:54;101107.56;;;28.77;37.61
22241;BME280;11289;52.524;13.694;2022-07-23T12:35:22;101109.31;;;28.54;36.61
22241;BME280;11289;52.524;13.694;2022-07-23T12:37:50;101096.19;;;28.04;37.40
22241;BME280;11289;52.524;13.694;2022-07-23T12:42:51;101099.44;;;27.82;38.84
22241;BME280;11289;52.524;13.694;2022-07-23T12:45:17;101102.09;;;27.93;39.74
22241;BME280;11289;52.524;13.694;2022-07-23T12:50:50;101101.19;;;28.53;37.20
22241;BME280;11289;52.524;13.694;2022-07-23T12:53:23;101107.88;;;28.46;37.48
22241;BME280;11289;52.524;13.694;2022-07-23T12:55:50;101109.81;;;28.33;37.10
22241;BME280;11289;52.524;13.694;2022-07-23T12:58:18;101105.47;;;28.08;38.46
22241;BME280;11289;52.524;13.694;2022-07-23T13:05:54;101109.97;;;28.25;38.02
22241;BME280;11289;52.524;13.694;2022-07-23T13:08:19;101101.25;;;28.49;37.62
22241;BME280;11289;52.524;13.694;2022-07-23T13:10:45;101108.91;;;28.36;36.80
22241;BME280;11289;52.524;13.694;2022-07-23T13:13:16;101092.44;;;28.07;37.76